TXKFTJSJ

Guest
Details From TXKF - Bermuda Intl
To TJSJ - San Juan - Luis Munoz Marin Intl
Flight Number -
Tags Generated
Created
Modified
Stats Distance 840 nm / 1,555 km
Max Altitude 0 ft / 0 m
Waypoints 3
Social Downloads 2
Likes 0
Share VATSIM

Download

Looking for another format? Having issues loading an existing format? Contact us
Advertisement - Login to hide

Notes

Generated

Route

TXKF R1270 TJSJ

ID Type Via Altitude Latitude Longitude Leg Dist Tot Dist Heading (true) Name
O TXKF APT - 0 ft / 0 m 32.36669˚ -64.69410˚ - 0 nm - -
R1270 FIX - 0 ft / 0 m 18.43356˚ -66.01373˚ 839 nm 839 nm 185° / 185° -
O TJSJ APT - 0 ft / 0 m 18.43356˚ -66.01373˚ 0 nm 839 nm 0° / 180° -

Altitude Profile

Advertisement - Login to hide

Weather


0- 5 10 15 20 25 30 35+ Temperature / ° C

Clouds and Precipitation
Forecast for 2018-05-23 12:00 UTC. Updated 6 hours ago

Ground ~20,000 ft ~40,000 ft Winds

TXKF

Details ICAO TXKF (BDA)
Name Bermuda Intl
Region Bermuda
Timezone Unknown (UTC+0.0)
Stats Elevation 12 ft / 4 m (AMSL)
Location 32.364038° -64.678684°
Runways 1
Magnetic Variation 14.767° W

METAR

TXKF 231555Z 21015KT 9999 FEW028 BKN300 26/19 Q1024

Decode

TAF

TAF TAF TXKF 231135Z 2412/2512 23012KT 9999 FEW020 BKN300 PROB30 TEMPO 2503/2512 8000 -SHRA SCT010 BKN015

Decode

Departure Runways

ID Width Length Bearing (true) Bearing (mag) Surface Threshold Offset Overrun Length
12 150 ft / 46 m 9,701 ft / 2,957 m 101.50° 116.27° Asphalt 0 ft / 0 m 553 ft / 169 m
30 150 ft / 46 m 9,701 ft / 2,957 m 281.52° 296.29° Asphalt 0 ft / 0 m 207 ft / 63 m

TJSJ

Details ICAO TJSJ (SJU)
Name San Juan - Luis Munoz Marin Intl
Region USA (Puerto Rico)
Timezone America/Puerto_Rico (UTC-4.0)
Stats Elevation 9 ft / 3 m (AMSL)
Location 18.438777° -66.002018°
Runways 2
Magnetic Variation 13.242° W

METAR

TJSJ 231556Z 07018G23KT 10SM FEW026 FEW031 FEW100 28/24 A3009

Decode

TAF

TAF TJSJ 231130Z 2312/2412 11007KT P6SM FEW030 FM231400 07016KT P6SM FEW025 SCT035 FM231600 07019G25KT P6SM VCSH SCT030 BKN050 FM232300 09011KT P6SM SCT030

Decode

Destination Runways

ID Width Length Bearing (true) Bearing (mag) Surface Threshold Offset Overrun Length
08 200 ft / 61 m 9,781 ft / 2,981 m 66.87° 80.11° Asphalt 0 ft / 0 m 200 ft / 61 m
10 151 ft / 46 m 8,007 ft / 2,440 m 90.14° 103.38° Concrete 0 ft / 0 m 200 ft / 61 m
26 200 ft / 61 m 9,781 ft / 2,981 m 246.88° 260.12° Asphalt 0 ft / 0 m 230 ft / 70 m
28 151 ft / 46 m 8,007 ft / 2,440 m 270.15° 283.39° Concrete 0 ft / 0 m 200 ft / 61 m

Approach Navaids

Runway Type Ident Frequency Range Bearing (true) Bearing (mag) Slope Elevation
08 Localiser ISJU 110.30 MHz 18 nm / 33 km 66.88° 80.12° - 5 ft / 2 m (AMSL)
08 Glidescope ISJU 110.30 MHz 10 nm / 19 km 66.87° 80.11° 3.00° 9 ft / 3 m (AMSL)
10 Localiser ICLA 109.70 MHz 18 nm / 33 km 90.15° 103.39° - 9 ft / 3 m (AMSL)
10 Glidescope ICLA 109.70 MHz 10 nm / 19 km 90.14° 103.39° 3.00° 8 ft / 2 m (AMSL)

Popular Alternatives